Apalachin, New York
Current Conditions -  °F | °C
As of 7:53 PM on Thursday 30 Oct 2014 (Local Time) from KBGM Reporting Station
Broken Clouds Broken Clouds  
Wind Chill: 41°   Ceiling: 3900
Heat Index: 41°   Visibility: 10mi
Dew Point: 31°   Wind: 3mph
Humidity: 67%   Direction: 350°N
Pressure: 30.02"   Gusts: NA
Location:  42.07°N, 76.15°W
Report Text: KBGM 302353Z 35003KT 10SM BKN039 05/M01 A3002 RMK AO2 SLP175 T00501006 10078 20050 50004
Loading
Personal Weather Stations






























Interactive Weather Map
Tropical Storm Tracking
New forecast layout! Learn more

10-Day Weather Forecast

Advertisements
Track Severe Weather on mobile